Time;durP1;ratioP1;P1;durP2;ratioP2;P2;SDS_P1;SDS_P2;PMS_P1;PMS_P2;Temp;Humidity;BMP_temperature;BMP_pressure;BME280_temperature;BME280_humidity;BME280_pressure;Samples;Min_cycle;Max_cycle;Signal;HPM_P1;HPM_P2
2022/10/14 00:01:00;;;;;;;37.90;19.70;;;;;;;;;;107092;1306;22051;-81
2022/10/14 00:03:48;;;;;;;36.10;19.00;;;;;;;;;;107039;1305;22021;-81
2022/10/14 00:06:19;;;;;;;40.40;21.40;;;;;;;;;;106965;1306;22104;-81
2022/10/14 00:08:48;;;;;;;39.10;20.30;;;;;;;;;;106956;1304;22691;-81
2022/10/14 00:11:19;;;;;;;39.70;21.00;;;;;;;;;;107037;1306;21942;-81
2022/10/14 00:13:46;;;;;;;36.50;20.40;;;;;;;;;;106960;1306;22712;-81
2022/10/14 00:16:15;;;;;;;38.70;20.70;;;;;;;;;;107002;1305;22115;-80
2022/10/14 00:18:42;;;;;;;38.60;19.30;;;;;;;;;;107031;1298;22520;-81
2022/10/14 00:21:08;;;;;;;34.10;17.80;;;;;;;;;;107017;1306;22061;-81
2022/10/14 00:23:35;;;;;;;37.90;19.30;;;;;;;;;;106964;1300;22038;-81
2022/10/14 00:26:01;;;;;;;35.30;19.80;;;;;;;;;;106935;1306;22119;-81
2022/10/14 00:28:30;;;;;;;35.00;19.10;;;;;;;;;;107037;1305;22051;-81
2022/10/14 00:30:57;;;;;;;36.70;19.30;;;;;;;;;;107060;1306;22059;-80
2022/10/14 00:33:25;;;;;;;39.00;19.80;;;;;;;;;;107011;1293;21938;-81
2022/10/14 00:36:00;;;;;;;37.50;19.90;;;;;;;;;;106934;1305;22098;-81
2022/10/14 00:38:30;;;;;;;34.70;18.70;;;;;;;;;;106939;1306;22048;-82
2022/10/14 00:40:57;;;;;;;34.60;18.60;;;;;;;;;;106889;1306;22094;-81
2022/10/14 00:43:24;;;;;;;38.10;19.20;;;;;;;;;;107006;1306;22063;-81
2022/10/14 00:45:51;;;;;;;36.10;18.40;;;;;;;;;;106950;1306;23201;-81
2022/10/14 00:48:19;;;;;;;36.40;18.30;;;;;;;;;;107028;1301;22124;-81
2022/10/14 00:50:49;;;;;;;37.70;19.00;;;;;;;;;;107034;1306;22059;-81
2022/10/14 00:53:16;;;;;;;37.30;19.50;;;;;;;;;;107035;1307;22071;-81
2022/10/14 00:55:43;;;;;;;36.50;19.30;;;;;;;;;;106938;1306;22069;-81
2022/10/14 00:58:11;;;;;;;35.60;18.70;;;;;;;;;;107034;1306;22142;-81
2022/10/14 01:00:38;;;;;;;41.10;22.30;;;;;;;;;;107108;1304;22096;-82
2022/10/14 01:03:09;;;;;;;40.70;19.60;;;;;;;;;;106924;1306;22761;-82
2022/10/14 01:05:43;;;;;;;36.80;19.60;;;;;;;;;;106982;1305;22073;-82
2022/10/14 01:08:49;;;;;;;41.80;19.20;;;;;;;;;;107026;1307;22783;-81
2022/10/14 01:11:28;;;;;;;39.20;20.20;;;;;;;;;;106616;1310;22286;-81
2022/10/14 01:14:19;;;;;;;38.00;19.40;;;;;;;;;;106476;1312;22173;-82
2022/10/14 01:16:48;;;;;;;36.90;19.30;;;;;;;;;;106589;1312;22138;-81
2022/10/14 01:19:23;;;;;;;35.50;20.00;;;;;;;;;;106544;1312;22879;-81
2022/10/14 01:21:53;;;;;;;42.70;20.70;;;;;;;;;;106548;1312;22699;-81
2022/10/14 01:24:20;;;;;;;43.20;19.60;;;;;;;;;;106576;1310;22087;-81
2022/10/14 01:26:46;;;;;;;36.40;19.50;;;;;;;;;;106588;1312;22139;-81
2022/10/14 01:29:15;;;;;;;34.40;18.10;;;;;;;;;;106555;1312;22175;-81
2022/10/14 01:31:47;;;;;;;32.90;17.40;;;;;;;;;;106505;1308;22134;-81
2022/10/14 01:34:19;;;;;;;38.80;19.40;;;;;;;;;;106596;1312;22979;-81
2022/10/14 01:36:55;;;;;;;35.90;18.60;;;;;;;;;;106489;1313;22123;-82
2022/10/14 01:39:24;;;;;;;36.80;19.10;;;;;;;;;;106470;1313;22074;-81
2022/10/14 01:41:53;;;;;;;39.90;19.30;;;;;;;;;;106598;1306;21942;-81
2022/10/14 01:44:24;;;;;;;38.60;19.00;;;;;;;;;;106954;1297;22111;-81
2022/10/14 01:46:52;;;;;;;38.00;19.50;;;;;;;;;;106777;1306;22043;-81
2022/10/14 01:49:22;;;;;;;42.60;20.40;;;;;;;;;;106975;1306;22083;-81
2022/10/14 01:51:51;;;;;;;38.40;19.20;;;;;;;;;;106961;1307;22524;-81
2022/10/14 01:54:20;;;;;;;38.30;17.90;;;;;;;;;;106935;1306;22029;-81
2022/10/14 01:56:47;;;;;;;38.50;18.90;;;;;;;;;;106779;1308;22098;-81
2022/10/14 01:59:15;;;;;;;37.70;19.90;;;;;;;;;;106988;1303;22066;-81
2022/10/14 02:01:41;;;;;;;38.30;20.50;;;;;;;;;;106948;1305;22173;-81
2022/10/14 02:04:15;;;;;;;36.90;20.20;;;;;;;;;;106890;1297;22064;-81
2022/10/14 02:06:44;;;;;;;38.90;19.10;;;;;;;;;;106888;1308;22021;-81
2022/10/14 02:09:19;;;;;;;35.40;19.10;;;;;;;;;;106932;1306;22806;-81
2022/10/14 02:11:57;;;;;;;38.00;19.10;;;;;;;;;;106950;1309;21986;-81
2022/10/14 02:14:27;;;;;;;41.70;18.80;;;;;;;;;;106901;1309;22512;-81
2022/10/14 02:16:54;;;;;;;38.50;18.40;;;;;;;;;;106926;1310;22094;-81
2022/10/14 02:19:27;;;;;;;32.10;17.20;;;;;;;;;;106943;1306;22054;-82
2022/10/14 02:22:20;;;;;;;34.70;18.50;;;;;;;;;;106911;1308;22087;-81
2022/10/14 02:24:50;;;;;;;38.10;19.30;;;;;;;;;;106947;1310;22070;-82
2022/10/14 02:27:19;;;;;;;38.60;19.70;;;;;;;;;;106885;1306;22123;-80
2022/10/14 02:29:46;;;;;;;36.80;19.10;;;;;;;;;;106894;1312;22077;-82
2022/10/14 02:32:13;;;;;;;37.70;18.80;;;;;;;;;;106914;1307;22018;-81
2022/10/14 02:34:40;;;;;;;36.60;19.90;;;;;;;;;;106927;1309;22049;-81
2022/10/14 02:37:10;;;;;;;36.30;19.70;;;;;;;;;;106885;1308;21994;-81
2022/10/14 02:39:42;;;;;;;34.60;17.80;;;;;;;;;;106910;1306;22100;-81
2022/10/14 02:42:11;;;;;;;37.70;19.30;;;;;;;;;;106744;1308;22060;-82
2022/10/14 02:44:50;;;;;;;39.10;19.60;;;;;;;;;;106898;1312;22043;-81
2022/10/14 02:47:17;;;;;;;35.50;19.40;;;;;;;;;;106878;1310;22182;-81
2022/10/14 02:49:44;;;;;;;35.90;19.50;;;;;;;;;;106794;1310;22085;-81
2022/10/14 02:52:11;;;;;;;39.50;18.80;;;;;;;;;;106927;1306;22857;-80
2022/10/14 02:54:39;;;;;;;35.60;18.90;;;;;;;;;;106908;1307;22088;-81
2022/10/14 02:57:06;;;;;;;39.50;19.60;;;;;;;;;;106881;1310;22665;-81
2022/10/14 02:59:33;;;;;;;35.00;19.20;;;;;;;;;;106912;1307;22105;-81
2022/10/14 03:02:00;;;;;;;36.90;19.40;;;;;;;;;;106964;1307;22069;-81
2022/10/14 03:04:27;;;;;;;36.20;19.10;;;;;;;;;;106933;1311;22091;-81
2022/10/14 03:06:54;;;;;;;34.10;18.30;;;;;;;;;;107032;1306;21627;-81
2022/10/14 03:09:21;;;;;;;32.50;17.70;;;;;;;;;;106927;1306;22080;-82
2022/10/14 03:11:48;;;;;;;34.90;16.90;;;;;;;;;;107090;1300;22049;-82
2022/10/14 03:14:17;;;;;;;36.80;19.60;;;;;;;;;;106746;1307;22740;-81
2022/10/14 03:16:44;;;;;;;38.50;19.70;;;;;;;;;;106734;1309;22045;-81
2022/10/14 03:19:16;;;;;;;36.30;19.00;;;;;;;;;;106893;1307;22735;-82
2022/10/14 03:21:48;;;;;;;40.10;19.40;;;;;;;;;;106771;1309;22113;-81
2022/10/14 03:24:19;;;;;;;34.90;18.40;;;;;;;;;;106756;1308;22078;-81
2022/10/14 03:26:51;;;;;;;39.30;18.70;;;;;;;;;;106747;1309;22129;-81
2022/10/14 03:29:23;;;;;;;39.20;18.80;;;;;;;;;;106754;1307;22070;-81
2022/10/14 03:31:55;;;;;;;39.60;18.50;;;;;;;;;;106763;1308;22075;-81
2022/10/14 03:34:43;;;;;;;32.00;17.40;;;;;;;;;;106699;1307;22646;-81
2022/10/14 03:37:15;;;;;;;35.00;18.50;;;;;;;;;;106750;1307;22047;-82
2022/10/14 03:39:47;;;;;;;38.50;19.20;;;;;;;;;;106766;1298;22853;-82
2022/10/14 03:42:16;;;;;;;35.30;19.00;;;;;;;;;;106727;1308;22034;-81
2022/10/14 03:44:46;;;;;;;42.90;18.60;;;;;;;;;;106759;1309;22353;-81
2022/10/14 03:47:23;;;;;;;36.00;17.80;;;;;;;;;;106896;1307;22522;-82
2022/10/14 03:49:50;;;;;;;36.90;17.20;;;;;;;;;;106748;1309;22774;-82
2022/10/14 03:52:32;;;;;;;35.50;18.50;;;;;;;;;;106723;1308;22052;-81
2022/10/14 03:55:04;;;;;;;32.80;17.20;;;;;;;;;;106872;1307;22753;-81
2022/10/14 03:57:32;;;;;;;39.20;17.40;;;;;;;;;;106766;1308;21688;-81
2022/10/14 04:00:00;;;;;;;37.90;18.70;;;;;;;;;;106750;1309;22112;-82
2022/10/14 04:02:40;;;;;;;37.10;17.70;;;;;;;;;;106876;1307;22562;-82
2022/10/14 04:05:12;;;;;;;36.40;18.20;;;;;;;;;;106702;1307;22446;-81
2022/10/14 04:07:40;;;;;;;39.80;18.70;;;;;;;;;;106748;1307;22054;-81
2022/10/14 04:10:08;;;;;;;35.50;18.20;;;;;;;;;;106882;1307;22717;-81
2022/10/14 04:12:39;;;;;;;33.60;17.60;;;;;;;;;;106869;1308;22021;-81
2022/10/14 04:15:12;;;;;;;38.40;18.10;;;;;;;;;;106894;1307;22031;-81
2022/10/14 04:17:56;;;;;;;37.60;17.80;;;;;;;;;;106754;1307;22806;-81
2022/10/14 04:20:25;;;;;;;34.00;17.70;;;;;;;;;;107136;1300;22118;-81
2022/10/14 04:22:55;;;;;;;39.10;17.70;;;;;;;;;;106863;1307;22820;-81
2022/10/14 04:25:25;;;;;;;38.80;18.00;;;;;;;;;;106767;1309;22114;-82
2022/10/14 04:27:57;;;;;;;38.90;17.40;;;;;;;;;;106864;1309;22690;-82
2022/10/14 04:30:32;;;;;;;39.70;18.50;;;;;;;;;;106791;1307;22082;-81
2022/10/14 04:33:02;;;;;;;40.90;18.30;;;;;;;;;;106456;1307;432860;-81
2022/10/14 04:35:30;;;;;;;36.90;18.60;;;;;;;;;;106852;1309;22054;-81
2022/10/14 04:38:00;;;;;;;40.60;22.10;;;;;;;;;;106730;1307;22070;-81
2022/10/14 04:40:31;;;;;;;41.30;23.60;;;;;;;;;;106770;1302;22044;-81
2022/10/14 04:43:01;;;;;;;42.20;22.90;;;;;;;;;;106875;1307;22047;-81
2022/10/14 04:45:37;;;;;;;36.90;20.40;;;;;;;;;;106734;1309;22063;-81
2022/10/14 04:48:11;;;;;;;50.60;21.50;;;;;;;;;;106707;1307;21676;-83
2022/10/14 04:50:43;;;;;;;45.60;20.70;;;;;;;;;;106739;1307;22059;-81
2022/10/14 04:53:41;;;;;;;38.70;20.10;;;;;;;;;;106810;1307;22080;-81
2022/10/14 04:56:27;;;;;;;39.20;20.90;;;;;;;;;;106873;1307;22069;-82
2022/10/14 04:59:00;;;;;;;36.40;20.70;;;;;;;;;;106726;1307;22073;-81
2022/10/14 05:01:53;;;;;;;38.90;20.80;;;;;;;;;;106768;1302;22119;-81
2022/10/14 05:04:22;;;;;;;37.90;19.90;;;;;;;;;;106859;1309;21979;-81
2022/10/14 05:06:51;;;;;;;46.90;20.30;;;;;;;;;;106764;1302;22070;-81
2022/10/14 05:09:22;;;;;;;47.40;19.30;;;;;;;;;;106875;1307;22022;-83
2022/10/14 05:18:47;;;;;;;37.10;19.90;;;;;;;;;;100503;1341;544842;-84
2022/10/14 05:21:14;;;;;;;38.10;20.00;;;;;;;;;;102451;1316;24286;-84
2022/10/14 05:23:50;;;;;;;39.00;20.20;;;;;;;;;;102757;1316;22501;-89
2022/10/14 05:26:17;;;;;;;41.40;20.20;;;;;;;;;;102750;1301;24440;-83
2022/10/14 05:28:44;;;;;;;48.30;21.10;;;;;;;;;;102578;1317;22500;-83
2022/10/14 05:31:10;;;;;;;39.90;19.90;;;;;;;;;;102596;1317;22483;-82
2022/10/14 05:33:44;;;;;;;48.90;20.30;;;;;;;;;;102894;1313;22577;-83
2022/10/14 05:36:10;;;;;;;41.00;19.30;;;;;;;;;;102803;1313;22517;-87
2022/10/14 05:38:37;;;;;;;38.10;18.90;;;;;;;;;;103547;1301;26567;-89
2022/10/14 05:41:04;;;;;;;34.90;18.20;;;;;;;;;;103535;1306;22469;-83
2022/10/14 05:43:31;;;;;;;33.80;17.90;;;;;;;;;;103549;1306;23500;-89
2022/10/14 05:45:59;;;;;;;37.70;17.60;;;;;;;;;;103567;1306;24247;-87
2022/10/14 05:48:27;;;;;;;34.40;17.30;;;;;;;;;;103630;1306;24260;-89
2022/10/14 05:50:55;;;;;;;39.30;18.30;;;;;;;;;;103564;1299;23198;-86
2022/10/14 05:53:22;;;;;;;33.50;18.60;;;;;;;;;;103579;1298;24327;-82
2022/10/14 05:55:50;;;;;;;44.50;19.20;;;;;;;;;;103596;1306;22506;-82
2022/10/14 05:58:17;;;;;;;42.30;19.60;;;;;;;;;;103686;1292;22465;-82
2022/10/14 06:00:44;;;;;;;44.10;20.40;;;;;;;;;;103732;1283;22610;-82
2022/10/14 06:03:13;;;;;;;43.60;19.20;;;;;;;;;;103537;1286;23979;-83
2022/10/14 06:05:40;;;;;;;38.80;19.80;;;;;;;;;;103702;1285;22486;-84
2022/10/14 06:08:07;;;;;;;39.10;20.30;;;;;;;;;;103763;1306;24344;-84
2022/10/14 06:10:36;;;;;;;44.40;19.60;;;;;;;;;;103656;1306;22511;-82
2022/10/14 06:13:03;;;;;;;42.90;18.90;;;;;;;;;;103493;1284;25326;-84
2022/10/14 06:15:30;;;;;;;42.30;18.50;;;;;;;;;;103541;1306;22490;-89
2022/10/14 06:17:57;;;;;;;48.20;20.50;;;;;;;;;;103268;1306;22540;-89
2022/10/14 06:20:25;;;;;;;44.20;19.20;;;;;;;;;;103456;1277;24487;-86
2022/10/14 06:22:51;;;;;;;36.50;17.80;;;;;;;;;;103383;1282;25512;-84
2022/10/14 06:25:18;;;;;;;36.50;18.50;;;;;;;;;;103515;1306;22462;-84
2022/10/14 06:27:44;;;;;;;38.90;18.80;;;;;;;;;;103392;1306;22515;-85
2022/10/14 06:30:11;;;;;;;36.50;18.00;;;;;;;;;;103535;1306;22482;-82
2022/10/14 06:32:38;;;;;;;36.30;18.20;;;;;;;;;;103479;1306;24506;-88
2022/10/14 06:35:05;;;;;;;36.70;18.30;;;;;;;;;;103534;1306;22456;-86
2022/10/14 06:37:31;;;;;;;36.20;17.90;;;;;;;;;;103404;1294;22519;-82
2022/10/14 06:39:58;;;;;;;41.50;21.40;;;;;;;;;;103543;1306;22474;-88
2022/10/14 06:42:24;;;;;;;41.60;20.60;;;;;;;;;;103546;1285;22555;-85
2022/10/14 06:44:51;;;;;;;50.80;21.60;;;;;;;;;;103510;1306;21975;-85
2022/10/14 06:47:18;;;;;;;52.00;18.80;;;;;;;;;;103549;1306;22572;-89
2022/10/14 06:49:44;;;;;;;47.20;19.80;;;;;;;;;;103464;1306;22500;-87
2022/10/14 06:52:11;;;;;;;44.30;20.20;;;;;;;;;;103518;1305;22478;-88
2022/10/14 06:54:38;;;;;;;44.20;18.80;;;;;;;;;;103522;1306;22468;-87
2022/10/14 06:57:05;;;;;;;43.30;19.60;;;;;;;;;;103576;1306;25393;-84
2022/10/14 06:59:31;;;;;;;42.40;20.10;;;;;;;;;;103465;1306;22469;-84
2022/10/14 07:01:58;;;;;;;41.00;19.20;;;;;;;;;;103545;1299;22465;-89
2022/10/14 07:04:25;;;;;;;47.80;19.50;;;;;;;;;;103551;1301;22935;-83
2022/10/14 07:06:51;;;;;;;52.90;19.40;;;;;;;;;;103538;1306;24007;-83
2022/10/14 07:09:18;;;;;;;56.30;19.10;;;;;;;;;;103299;1307;22584;-85
2022/10/14 07:11:45;;;;;;;50.80;19.20;;;;;;;;;;103588;1306;25300;-86
2022/10/14 07:14:11;;;;;;;54.10;19.40;;;;;;;;;;103926;1303;23859;-86
2022/10/14 07:16:38;;;;;;;50.90;19.80;;;;;;;;;;103830;1303;22717;-88
2022/10/14 07:19:05;;;;;;;47.60;19.20;;;;;;;;;;103858;1294;22466;-86
2022/10/14 07:21:31;;;;;;;47.90;19.90;;;;;;;;;;103601;1304;22452;-83
2022/10/14 07:23:58;;;;;;;38.20;18.30;;;;;;;;;;103599;1303;23192;-85
2022/10/14 07:26:25;;;;;;;42.20;17.90;;;;;;;;;;103835;1294;22470;-83
2022/10/14 07:28:51;;;;;;;34.20;16.60;;;;;;;;;;103615;1303;24214;-89
2022/10/14 07:31:18;;;;;;;35.30;16.50;;;;;;;;;;103802;1303;24395;-84
2022/10/14 07:33:45;;;;;;;45.30;19.10;;;;;;;;;;103861;1303;22422;-82
2022/10/14 07:36:13;;;;;;;41.90;18.00;;;;;;;;;;103633;1303;22465;-85
2022/10/14 07:38:40;;;;;;;38.00;18.10;;;;;;;;;;103836;1303;25359;-87
2022/10/14 07:41:15;;;;;;;37.10;18.30;;;;;;;;;;103845;1303;24403;-83
2022/10/14 07:43:44;;;;;;;36.60;18.20;;;;;;;;;;103648;1303;22480;-85
2022/10/14 07:46:12;;;;;;;41.50;19.80;;;;;;;;;;103629;1303;25557;-84
2022/10/14 07:48:39;;;;;;;40.00;19.70;;;;;;;;;;103856;1303;23996;-86
2022/10/14 07:51:06;;;;;;;35.10;19.00;;;;;;;;;;103595;1303;25387;-85
2022/10/14 07:53:34;;;;;;;37.80;19.10;;;;;;;;;;103857;1303;24282;-83
2022/10/14 07:56:01;;;;;;;34.30;16.30;;;;;;;;;;103619;1304;23090;-86
2022/10/14 07:58:29;;;;;;;32.30;17.00;;;;;;;;;;103558;1302;23337;-86
2022/10/14 08:00:56;;;;;;;33.30;16.40;;;;;;;;;;103886;1303;22591;-83
2022/10/14 08:03:23;;;;;;;38.70;17.60;;;;;;;;;;103617;1303;25449;-83
2022/10/14 08:05:56;;;;;;;36.90;16.60;;;;;;;;;;103839;1303;22457;-87
2022/10/14 08:08:23;;;;;;;36.60;16.40;;;;;;;;;;103797;1303;22463;-86
2022/10/14 08:10:58;;;;;;;31.10;15.20;;;;;;;;;;103864;1303;24098;-87
2022/10/14 08:13:24;;;;;;;30.60;16.20;;;;;;;;;;103864;1303;24298;-85
2022/10/14 08:15:51;;;;;;;35.70;16.10;;;;;;;;;;103813;1303;25289;-83
2022/10/14 08:18:18;;;;;;;31.00;16.10;;;;;;;;;;103780;1303;24474;-82
2022/10/14 08:20:44;;;;;;;35.80;17.30;;;;;;;;;;103803;1300;22506;-83
2022/10/14 08:23:12;;;;;;;34.60;17.50;;;;;;;;;;103803;1303;22440;-87
2022/10/14 08:25:39;;;;;;;35.40;17.20;;;;;;;;;;103837;1303;24317;-84
2022/10/14 08:28:05;;;;;;;31.60;17.10;;;;;;;;;;103857;1303;24381;-86
2022/10/14 08:30:32;;;;;;;32.50;16.50;;;;;;;;;;103816;1303;25204;-83
2022/10/14 08:32:59;;;;;;;37.50;16.70;;;;;;;;;;103605;1304;22605;-84
2022/10/14 08:35:26;;;;;;;30.60;14.60;;;;;;;;;;103830;1303;24233;-86
2022/10/14 08:37:57;;;;;;;26.80;13.90;;;;;;;;;;103734;1295;24310;-88
2022/10/14 08:40:24;;;;;;;27.30;15.10;;;;;;;;;;103853;1303;25547;-86
2022/10/14 08:43:03;;;;;;;28.10;14.60;;;;;;;;;;103855;1303;25399;-87
2022/10/14 08:45:35;;;;;;;26.10;14.00;;;;;;;;;;103844;1303;24377;-86
2022/10/14 08:48:10;;;;;;;29.40;13.40;;;;;;;;;;103956;1302;25225;-87
2022/10/14 08:50:41;;;;;;;29.20;13.90;;;;;;;;;;103592;1299;25687;-87
2022/10/14 08:53:14;;;;;;;28.60;14.00;;;;;;;;;;103816;1303;22510;-88
2022/10/14 08:55:45;;;;;;;26.80;12.90;;;;;;;;;;103849;1297;22485;-85
2022/10/14 08:58:18;;;;;;;28.80;14.20;;;;;;;;;;103846;1303;22484;-83
2022/10/14 09:00:48;;;;;;;27.10;14.60;;;;;;;;;;103909;1302;25440;-85
2022/10/14 09:03:17;;;;;;;28.60;14.50;;;;;;;;;;103594;1298;25201;-83
2022/10/14 09:05:43;;;;;;;25.70;13.30;;;;;;;;;;103614;1298;25306;-84
2022/10/14 09:08:13;;;;;;;30.70;15.60;;;;;;;;;;103922;1302;25203;-89
2022/10/14 09:10:41;;;;;;;22.60;12.00;;;;;;;;;;103872;1301;22478;-83
2022/10/14 09:13:08;;;;;;;32.40;12.80;;;;;;;;;;103599;1303;22446;-89
2022/10/14 09:15:40;;;;;;;32.20;12.80;;;;;;;;;;103600;1303;26473;-86
2022/10/14 09:18:15;;;;;;;25.00;12.80;;;;;;;;;;103816;1303;22492;-86
2022/10/14 09:20:44;;;;;;;27.30;12.40;;;;;;;;;;103909;1281;22477;-83
2022/10/14 09:23:10;;;;;;;20.10;10.30;;;;;;;;;;103826;1303;22486;-84
2022/10/14 09:25:40;;;;;;;25.90;10.70;;;;;;;;;;103729;1288;23554;-85
2022/10/14 09:28:07;;;;;;;20.70;10.30;;;;;;;;;;103750;1275;23617;-87
2022/10/14 09:30:39;;;;;;;29.10;13.40;;;;;;;;;;103743;1291;22558;-83
2022/10/14 09:33:11;;;;;;;19.10;11.30;;;;;;;;;;103958;1303;22587;-85
2022/10/14 09:35:41;;;;;;;21.10;11.40;;;;;;;;;;103787;1303;22472;-84
2022/10/14 09:38:10;;;;;;;20.10;11.10;;;;;;;;;;103982;1302;25410;-85
2022/10/14 09:40:40;;;;;;;21.90;11.50;;;;;;;;;;103999;1279;23990;-83
2022/10/14 09:43:06;;;;;;;28.70;12.00;;;;;;;;;;104056;1289;22472;-83
2022/10/14 09:45:52;;;;;;;20.40;11.00;;;;;;;;;;103851;1293;22527;-84
2022/10/14 09:48:23;;;;;;;20.10;11.10;;;;;;;;;;103985;1288;22480;-82
2022/10/14 09:50:51;;;;;;;28.60;11.40;;;;;;;;;;103833;1303;25259;-86
2022/10/14 09:53:32;;;;;;;20.50;10.80;;;;;;;;;;103813;1303;22476;-85
2022/10/14 09:56:01;;;;;;;24.60;10.50;;;;;;;;;;103691;1282;25318;-87
2022/10/14 09:58:28;;;;;;;22.00;10.90;;;;;;;;;;103678;1303;23141;-87
2022/10/14 10:00:56;;;;;;;19.80;9.90;;;;;;;;;;103943;1288;24212;-83
2022/10/14 10:03:24;;;;;;;20.70;10.00;;;;;;;;;;103930;1289;22448;-84
2022/10/14 10:05:58;;;;;;;20.20;10.50;;;;;;;;;;103805;1289;25363;-83
2022/10/14 10:08:26;;;;;;;17.90;9.80;;;;;;;;;;103936;1289;22466;-83
2022/10/14 10:11:12;;;;;;;18.30;10.30;;;;;;;;;;103784;1303;23041;-89
2022/10/14 10:13:44;;;;;;;17.50;9.70;;;;;;;;;;104056;1288;22533;-84
2022/10/14 10:16:19;;;;;;;18.60;8.50;;;;;;;;;;103959;1303;24385;-83
2022/10/14 10:18:47;;;;;;;19.00;10.20;;;;;;;;;;103751;1303;24202;-84
2022/10/14 10:21:25;;;;;;;21.90;9.60;;;;;;;;;;103731;1302;22469;-82
2022/10/14 10:23:59;;;;;;;20.90;9.10;;;;;;;;;;103905;1302;23343;-84
2022/10/14 10:26:31;;;;;;;20.50;10.70;;;;;;;;;;103908;1303;24372;-83
2022/10/14 10:29:02;;;;;;;17.90;9.30;;;;;;;;;;103741;1303;25171;-82
2022/10/14 10:31:29;;;;;;;18.30;9.90;;;;;;;;;;103751;1303;24352;-84
2022/10/14 10:34:03;;;;;;;18.80;9.40;;;;;;;;;;103883;1303;25389;-83
2022/10/14 10:36:34;;;;;;;23.50;10.20;;;;;;;;;;103783;1303;22840;-88
2022/10/14 10:39:05;;;;;;;19.30;9.60;;;;;;;;;;103958;1301;22489;-83
2022/10/14 10:41:31;;;;;;;19.80;10.10;;;;;;;;;;103732;1303;25520;-83
2022/10/14 10:44:01;;;;;;;21.20;9.70;;;;;;;;;;103771;1303;23352;-82
2022/10/14 10:46:40;;;;;;;17.60;8.90;;;;;;;;;;103872;1303;24461;-82
2022/10/14 10:49:25;;;;;;;19.60;10.10;;;;;;;;;;103796;1303;22477;-82
2022/10/14 10:52:05;;;;;;;20.90;9.80;;;;;;;;;;103883;1298;24049;-83
2022/10/14 10:54:52;;;;;;;18.40;9.90;;;;;;;;;;103731;1303;25301;-82
2022/10/14 10:57:34;;;;;;;20.00;8.70;;;;;;;;;;103790;1303;22519;-84
2022/10/14 11:00:09;;;;;;;16.20;8.60;;;;;;;;;;103769;1303;24428;-84
2022/10/14 11:02:39;;;;;;;16.50;8.40;;;;;;;;;;103891;1279;24230;-81
2022/10/14 11:05:25;;;;;;;18.40;8.50;;;;;;;;;;103707;1303;24203;-84
2022/10/14 11:13:52;;;;;;;22.30;9.50;;;;;;;;;;103823;1303;22462;-87
2022/10/14 11:16:29;;;;;;;17.60;8.80;;;;;;;;;;103848;1303;22908;-86
2022/10/14 11:19:06;;;;;;;16.70;8.60;;;;;;;;;;103650;1303;22590;-86
2022/10/14 11:21:53;;;;;;;22.80;9.80;;;;;;;;;;103744;1303;24797;-82
2022/10/14 11:24:28;;;;;;;19.00;8.40;;;;;;;;;;103610;1303;24244;-88
2022/10/14 11:26:57;;;;;;;17.70;8.60;;;;;;;;;;103954;1303;24282;-84
2022/10/14 11:29:39;;;;;;;16.70;8.40;;;;;;;;;;103563;1304;22471;-82
2022/10/14 11:32:25;;;;;;;36.60;9.30;;;;;;;;;;103878;1302;24314;-82
2022/10/14 11:35:08;;;;;;;20.80;8.70;;;;;;;;;;103936;1295;25492;-87
2022/10/14 11:37:54;;;;;;;16.90;8.10;;;;;;;;;;103570;1298;25289;-85
2022/10/14 11:40:27;;;;;;;17.90;8.30;;;;;;;;;;103834;1303;25376;-84
2022/10/14 11:43:13;;;;;;;19.20;8.70;;;;;;;;;;103717;1306;25300;-88
2022/10/14 11:45:40;;;;;;;20.70;9.10;;;;;;;;;;103857;1295;22852;-87
2022/10/14 11:48:22;;;;;;;24.00;8.80;;;;;;;;;;103683;1305;22427;-82
2022/10/14 11:50:52;;;;;;;18.70;9.00;;;;;;;;;;103697;1303;22508;-86
2022/10/14 11:53:32;;;;;;;29.90;9.00;;;;;;;;;;103839;1303;22462;-82
2022/10/14 11:56:07;;;;;;;28.90;9.70;;;;;;;;;;103688;1279;23210;-83
2022/10/14 11:58:35;;;;;;;18.20;9.00;;;;;;;;;;103641;1288;24395;-82
2022/10/14 12:01:03;;;;;;;22.00;8.90;;;;;;;;;;103630;1288;22483;-85
2022/10/14 12:03:47;;;;;;;20.30;8.60;;;;;;;;;;103591;1284;25235;-83
2022/10/14 12:06:14;;;;;;;17.30;7.30;;;;;;;;;;103963;1285;22597;-84
2022/10/14 12:08:49;;;;;;;18.10;8.00;;;;;;;;;;103926;1281;23068;-84
2022/10/14 12:11:25;;;;;;;16.90;8.00;;;;;;;;;;103583;1298;22470;-86
2022/10/14 12:13:56;;;;;;;16.70;7.70;;;;;;;;;;103879;1303;21750;-89
2022/10/14 12:16:23;;;;;;;15.20;7.40;;;;;;;;;;103549;1306;22465;-87
2022/10/14 12:18:54;;;;;;;17.80;7.50;;;;;;;;;;103923;1303;22472;-83
2022/10/14 12:21:29;;;;;;;14.80;7.40;;;;;;;;;;103796;1293;22768;-86
2022/10/14 12:24:07;;;;;;;18.80;8.10;;;;;;;;;;103746;1303;24380;-83
2022/10/14 12:26:34;;;;;;;18.70;9.10;;;;;;;;;;103698;1304;25336;-85
2022/10/14 12:29:01;;;;;;;20.60;7.80;;;;;;;;;;103870;1303;24419;-87
2022/10/14 12:31:28;;;;;;;18.80;8.20;;;;;;;;;;103710;1303;25362;-92
2022/10/14 12:34:10;;;;;;;18.10;8.10;;;;;;;;;;103715;1296;23223;-83
2022/10/14 12:36:38;;;;;;;16.10;7.70;;;;;;;;;;103813;1303;22664;-82
2022/10/14 12:39:16;;;;;;;17.90;7.60;;;;;;;;;;103769;1303;24227;-85
2022/10/14 12:48:49;;;;;;;11.90;6.40;;;;;;;;;;100511;1339;544826;-87
2022/10/14 12:51:20;;;;;;;14.70;6.50;;;;;;;;;;102656;1317;22590;-85
2022/10/14 12:53:49;;;;;;;13.30;6.50;;;;;;;;;;102544;1317;25341;-85
2022/10/14 12:56:30;;;;;;;11.70;5.80;;;;;;;;;;102563;1315;23089;-84
2022/10/14 12:59:02;;;;;;;14.60;6.70;;;;;;;;;;102538;1317;25259;-86
2022/10/14 13:01:29;;;;;;;14.70;5.10;;;;;;;;;;102760;1316;139359;-84
2022/10/14 13:04:07;;;;;;;10.60;5.10;;;;;;;;;;102758;1316;22539;-82
2022/10/14 13:06:35;;;;;;;10.40;4.40;;;;;;;;;;102821;1313;24315;-85
2022/10/14 13:09:11;;;;;;;11.30;4.40;;;;;;;;;;102826;1314;22657;-86
2022/10/14 13:11:38;;;;;;;11.70;4.60;;;;;;;;;;102809;1314;23074;-94
2022/10/14 13:14:20;;;;;;;13.30;4.80;;;;;;;;;;102867;1312;22474;-83
2022/10/14 13:16:50;;;;;;;9.40;4.00;;;;;;;;;;102890;1313;25270;-88
2022/10/14 13:19:32;;;;;;;16.70;4.20;;;;;;;;;;102927;1313;22592;-84
2022/10/14 13:22:00;;;;;;;9.20;3.90;;;;;;;;;;102927;1313;24507;-86
2022/10/14 13:24:27;;;;;;;12.90;4.00;;;;;;;;;;103051;1313;21787;-88
2022/10/14 13:26:53;;;;;;;8.70;3.80;;;;;;;;;;102962;1313;22539;-84
2022/10/14 13:29:23;;;;;;;10.80;3.90;;;;;;;;;;103004;1313;25345;-84
2022/10/14 13:32:11;;;;;;;11.90;4.10;;;;;;;;;;102807;1314;22541;-90
2022/10/14 13:34:57;;;;;;;13.40;6.60;;;;;;;;;;102923;1314;25342;-87
2022/10/14 13:37:34;;;;;;;22.20;11.30;;;;;;;;;;103289;1310;22583;-85
2022/10/14 13:40:21;;;;;;;800.50;336.90;;;;;;;;;;103281;1309;22483;-87
2022/10/14 13:43:17;;;;;;;374.50;120.20;;;;;;;;;;103069;1310;22864;-87
2022/10/14 13:45:47;;;;;;;399.90;150.40;;;;;;;;;;103298;1309;25341;-82
2022/10/14 13:48:20;;;;;;;370.20;153.00;;;;;;;;;;103394;1309;22480;-85
2022/10/14 13:50:49;;;;;;;87.90;36.40;;;;;;;;;;103378;1309;21812;-84
2022/10/14 13:53:17;;;;;;;99.80;32.60;;;;;;;;;;103365;1309;23860;-83
2022/10/14 13:55:45;;;;;;;37.10;15.70;;;;;;;;;;103295;1310;22500;-82
2022/10/14 13:58:11;;;;;;;38.00;14.40;;;;;;;;;;103309;1309;22471;-82
2022/10/14 14:00:40;;;;;;;25.30;10.20;;;;;;;;;;103369;1309;25324;-86
2022/10/14 14:03:25;;;;;;;42.40;15.40;;;;;;;;;;103067;1310;22714;-85
2022/10/14 14:05:52;;;;;;;43.90;19.80;;;;;;;;;;103363;1309;25542;-87
2022/10/14 14:08:26;;;;;;;26.40;10.90;;;;;;;;;;103276;1309;25263;-85
2022/10/14 14:10:58;;;;;;;29.10;12.00;;;;;;;;;;103266;1301;22598;-88
2022/10/14 14:13:26;;;;;;;16.40;6.40;;;;;;;;;;103434;1309;22667;-83
2022/10/14 14:15:53;;;;;;;17.20;7.50;;;;;;;;;;103141;1310;24224;-88
2022/10/14 14:18:40;;;;;;;18.70;7.00;;;;;;;;;;103428;1309;22472;-83
2022/10/14 14:21:10;;;;;;;15.90;6.80;;;;;;;;;;103287;1309;23139;-84
2022/10/14 14:23:47;;;;;;;11.60;5.20;;;;;;;;;;103066;1310;24384;-86
2022/10/14 14:26:14;;;;;;;15.20;7.10;;;;;;;;;;103088;1309;22518;-82
2022/10/14 14:28:43;;;;;;;15.50;6.20;;;;;;;;;;103282;1309;23884;-86
2022/10/14 14:31:13;;;;;;;11.00;5.60;;;;;;;;;;103323;1309;24306;-88
2022/10/14 14:33:41;;;;;;;11.60;5.60;;;;;;;;;;103377;1309;25403;-86
2022/10/14 14:36:13;;;;;;;13.40;6.40;;;;;;;;;;103298;1310;22621;-86
2022/10/14 14:38:50;;;;;;;12.90;5.90;;;;;;;;;;103353;1309;22965;-82
2022/10/14 14:41:18;;;;;;;18.90;8.00;;;;;;;;;;103174;1310;25311;-83
2022/10/14 14:43:45;;;;;;;15.10;6.60;;;;;;;;;;103268;1309;22478;-83
2022/10/14 14:46:27;;;;;;;12.80;6.40;;;;;;;;;;103562;1293;25214;-84
2022/10/14 14:48:54;;;;;;;13.60;7.30;;;;;;;;;;102966;1286;22500;-81